createdAt,value
2023-03-11T00:01:17.089Z,7.53
2023-03-11T00:03:47.437Z,7.52
2023-03-11T00:06:17.010Z,7.47
2023-03-11T00:08:45.290Z,7.42
2023-03-11T00:11:14.266Z,7.37
2023-03-11T00:13:43.040Z,7.31
2023-03-11T00:16:13.575Z,7.24
2023-03-11T00:18:42.167Z,7.18
2023-03-11T00:21:17.537Z,7.12
2023-03-11T00:23:47.014Z,7.07
2023-03-11T00:26:15.424Z,7.04
2023-03-11T00:28:45.912Z,7.03
2023-03-11T00:31:14.672Z,7.07
2023-03-11T00:33:48.704Z,7.11
2023-03-11T00:36:34.007Z,7.12
2023-03-11T00:39:07.950Z,7.13
2023-03-11T00:41:37.065Z,7.16
2023-03-11T00:44:08.290Z,7.22
2023-03-11T00:46:37.362Z,7.28
2023-03-11T00:49:10.870Z,7.31
2023-03-11T00:51:42.236Z,7.36
2023-03-11T00:54:11.114Z,7.39
2023-03-11T00:56:42.881Z,7.43
2023-03-11T00:59:11.752Z,7.42
2023-03-11T01:01:40.253Z,7.47
2023-03-11T01:04:08.386Z,7.53
2023-03-11T01:06:45.219Z,7.56
2023-03-11T01:09:43.113Z,7.57
2023-03-11T01:12:29.398Z,7.55
2023-03-11T01:14:57.954Z,7.56
2023-03-11T01:17:26.603Z,7.56
2023-03-11T01:19:59.885Z,7.55
2023-03-11T01:22:28.627Z,7.55
2023-03-11T01:24:57.150Z,7.56
2023-03-11T01:27:25.639Z,7.57
2023-03-11T01:29:54.028Z,7.57
2023-03-11T01:32:23.055Z,7.59
2023-03-11T01:34:51.966Z,7.60
2023-03-11T01:37:20.731Z,7.63
2023-03-11T01:39:49.977Z,7.66
2023-03-11T01:42:18.443Z,7.69
2023-03-11T01:44:47.106Z,7.69
2023-03-11T01:47:36.710Z,7.68
2023-03-11T01:50:11.234Z,7.67
2023-03-11T01:52:43.062Z,7.67
2023-03-11T01:55:15.108Z,7.68
2023-03-11T01:57:49.020Z,7.66
2023-03-11T02:00:20.867Z,7.65
2023-03-11T02:02:59.217Z,7.65
2023-03-11T02:05:28.259Z,7.67
2023-03-11T02:07:58.089Z,7.70
2023-03-11T02:10:30.935Z,7.75
2023-03-11T02:13:00.437Z,7.80
2023-03-11T02:15:30.272Z,7.86
2023-03-11T02:18:05.035Z,7.91
2023-03-11T02:21:27.040Z,7.94
2023-03-11T02:24:25.333Z,7.94
2023-03-11T02:27:12.578Z,7.94
2023-03-11T02:29:44.208Z,7.96
2023-03-11T02:32:15.599Z,8.01
2023-03-11T02:34:45.684Z,8.06
2023-03-11T02:37:17.376Z,8.10
2023-03-11T02:39:55.501Z,8.11
2023-03-11T02:42:32.302Z,8.13
2023-03-11T02:45:18.800Z,8.14
2023-03-11T02:47:52.912Z,8.10
2023-03-11T02:50:25.487Z,8.07
2023-03-11T02:52:59.425Z,8.06
2023-03-11T02:55:27.840Z,8.05
2023-03-11T02:57:56.689Z,8.02
2023-03-11T03:00:28.677Z,7.98
2023-03-11T03:03:10.997Z,7.95
2023-03-11T03:05:43.322Z,7.91
2023-03-11T03:08:12.314Z,7.87
2023-03-11T03:10:40.986Z,7.84
2023-03-11T03:13:11.968Z,7.76
2023-03-11T03:15:40.617Z,7.68
2023-03-11T03:18:11.902Z,7.63
2023-03-11T03:20:40.507Z,7.57
2023-03-11T03:23:09.560Z,7.49
2023-03-11T03:25:43.788Z,7.43
2023-03-11T03:28:16.252Z,7.37
2023-03-11T03:30:50.067Z,7.32
2023-03-11T03:33:18.902Z,7.29
2023-03-11T03:35:47.647Z,7.25
2023-03-11T03:38:26.808Z,7.20
2023-03-11T03:40:55.521Z,7.15
2023-03-11T03:43:24.265Z,7.12
2023-03-11T03:46:04.682Z,7.11
2023-03-11T03:48:39.111Z,7.12
2023-03-11T03:51:11.585Z,7.12
2023-03-11T03:53:46.244Z,7.14
2023-03-11T03:56:18.208Z,7.14
2023-03-11T03:58:46.922Z,7.11
2023-03-11T04:01:17.823Z,7.08
2023-03-11T04:03:46.601Z,7.05
2023-03-11T04:06:18.886Z,7.00
2023-03-11T04:08:48.441Z,6.95
2023-03-11T04:11:17.425Z,6.92
2023-03-11T04:13:46.388Z,6.91
2023-03-11T04:16:23.654Z,6.90
2023-03-11T04:18:54.181Z,6.90
2023-03-11T04:21:24.143Z,6.85
2023-03-11T04:23:52.803Z,6.79
2023-03-11T04:26:22.141Z,6.73
2023-03-11T04:28:53.184Z,6.65
2023-03-11T04:31:24.304Z,6.58
2023-03-11T04:33:56.228Z,6.50
2023-03-11T04:36:25.377Z,6.44
2023-03-11T04:38:57.548Z,6.38
2023-03-11T04:41:28.320Z,6.33
2023-03-11T04:43:59.207Z,6.28
2023-03-11T04:46:32.627Z,6.26
2023-03-11T04:49:04.519Z,6.21
2023-03-11T04:51:34.709Z,6.16
2023-03-11T04:54:03.418Z,6.13
2023-03-11T04:56:35.739Z,6.09
2023-03-11T04:59:05.259Z,6.03
2023-03-11T05:01:44.215Z,5.99
2023-03-11T05:04:13.460Z,5.97
2023-03-11T05:06:43.019Z,5.96
2023-03-11T05:09:12.622Z,5.93
2023-03-11T05:11:41.769Z,5.79
2023-03-11T05:14:12.910Z,5.51
2023-03-11T05:16:42.203Z,5.24
2023-03-11T05:19:30.327Z,5.04
2023-03-11T05:21:59.205Z,4.82
2023-03-11T05:24:29.650Z,4.63
2023-03-11T05:26:58.920Z,4.53
2023-03-11T05:29:28.358Z,4.44
2023-03-11T05:31:56.974Z,4.38
2023-03-11T05:34:25.476Z,4.28
2023-03-11T05:36:53.739Z,4.19
2023-03-11T05:39:24.053Z,4.13
2023-03-11T05:41:56.284Z,4.08
2023-03-11T05:44:28.716Z,4.04
2023-03-11T05:47:00.608Z,4.01
2023-03-11T05:49:29.482Z,3.95
2023-03-11T05:52:00.223Z,3.81
2023-03-11T05:54:31.275Z,3.76
2023-03-11T05:57:00.107Z,3.77
2023-03-11T05:59:29.569Z,3.79
2023-03-11T06:02:05.006Z,3.73
2023-03-11T06:04:34.028Z,3.70
2023-03-11T06:07:04.250Z,3.69
2023-03-11T06:09:38.274Z,3.65
2023-03-11T06:12:12.270Z,3.51
2023-03-11T06:15:07.686Z,3.48
2023-03-11T06:17:44.018Z,3.50
2023-03-11T06:20:22.419Z,3.53
2023-03-11T06:22:51.769Z,3.50
2023-03-11T06:25:23.011Z,3.50
2023-03-11T06:27:52.986Z,3.46
2023-03-11T06:30:28.087Z,3.43
2023-03-11T06:33:02.766Z,3.44
2023-03-11T06:35:31.246Z,3.45
2023-03-11T06:38:00.108Z,3.43
2023-03-11T06:40:29.307Z,3.38
2023-03-11T06:42:58.424Z,3.33
2023-03-11T06:45:28.849Z,3.30
2023-03-11T06:47:58.539Z,3.30
2023-03-11T06:50:28.793Z,3.32
2023-03-11T06:52:59.940Z,3.31
2023-03-11T06:55:44.206Z,3.33
2023-03-11T06:58:13.599Z,3.38
2023-03-11T07:01:22.024Z,3.39
2023-03-11T07:04:11.279Z,3.34
2023-03-11T07:06:48.072Z,3.34
2023-03-11T07:09:28.916Z,3.42
2023-03-11T07:12:06.411Z,3.51
2023-03-11T07:14:39.550Z,3.59
2023-03-11T07:17:08.574Z,3.67
2023-03-11T07:19:54.032Z,3.71
2023-03-11T07:22:23.800Z,3.75
2023-03-11T07:24:52.695Z,3.76
2023-03-11T07:27:26.967Z,3.76
2023-03-11T07:29:55.977Z,3.76
2023-03-11T07:32:27.651Z,3.80
2023-03-11T07:34:56.248Z,3.82
2023-03-11T07:37:25.254Z,3.76
2023-03-11T07:40:01.604Z,3.73
2023-03-11T07:42:40.292Z,3.75
2023-03-11T07:45:23.502Z,3.86
2023-03-11T07:47:55.323Z,3.92
2023-03-11T07:50:26.985Z,3.94
2023-03-11T07:53:01.005Z,3.93
2023-03-11T07:55:29.381Z,3.93
2023-03-11T07:57:58.061Z,3.73
2023-03-11T08:00:26.914Z,3.49
2023-03-11T08:02:55.317Z,3.26
2023-03-11T08:05:23.858Z,3.04
2023-03-11T08:08:02.609Z,2.88
2023-03-11T08:10:40.686Z,2.72
2023-03-11T08:13:12.516Z,2.56
2023-03-11T08:15:54.023Z,2.45
2023-03-11T08:18:33.995Z,2.38
2023-03-11T08:21:08.568Z,2.29
2023-03-11T08:23:37.135Z,2.20
2023-03-11T08:26:11.583Z,2.13
2023-03-11T08:28:58.202Z,2.08
2023-03-11T08:31:46.399Z,2.06
2023-03-11T08:34:21.012Z,2.00
2023-03-11T08:36:55.319Z,1.93
2023-03-11T08:39:27.389Z,1.87
2023-03-11T08:42:11.393Z,1.83
2023-03-11T08:44:52.544Z,1.82
2023-03-11T08:47:25.046Z,1.82
2023-03-11T08:50:05.725Z,1.78
2023-03-11T08:52:58.363Z,1.70
2023-03-11T08:55:42.181Z,1.60
2023-03-11T08:58:27.726Z,1.53
2023-03-11T09:01:08.892Z,1.49
2023-03-11T09:03:50.756Z,1.45
2023-03-11T09:06:24.059Z,1.41
2023-03-11T09:08:59.322Z,1.39
2023-03-11T09:11:37.397Z,1.33
2023-03-11T09:14:06.329Z,1.27
2023-03-11T09:16:36.776Z,1.25
2023-03-11T09:19:08.336Z,1.21
2023-03-11T09:21:39.145Z,1.19
2023-03-11T09:24:33.286Z,1.19
2023-03-11T09:27:03.112Z,1.19
2023-03-11T09:29:39.543Z,1.19
2023-03-11T09:32:20.321Z,1.16
2023-03-11T09:34:57.755Z,1.08
2023-03-11T09:37:32.670Z,1.10
2023-03-11T09:40:01.741Z,1.16
2023-03-11T09:43:26.807Z,1.21
2023-03-11T09:46:14.976Z,1.14
2023-03-11T09:49:02.108Z,1.10
2023-03-11T09:51:42.587Z,1.10
2023-03-11T09:54:13.832Z,1.10
2023-03-11T09:56:45.009Z,1.13
2023-03-11T09:59:32.925Z,1.14
2023-03-11T10:02:04.922Z,1.14
2023-03-11T10:05:20.213Z,1.16
2023-03-11T10:08:14.620Z,1.13
2023-03-11T10:11:02.396Z,1.10
2023-03-11T10:13:56.220Z,1.10
2023-03-11T10:16:54.670Z,1.10
2023-03-11T10:19:43.822Z,1.11
2023-03-11T10:22:35.768Z,1.11
2023-03-11T10:25:29.450Z,1.12
2023-03-11T10:28:13.888Z,1.14
2023-03-11T10:31:01.382Z,1.18
2023-03-11T10:33:45.301Z,1.20
2023-03-11T10:36:26.966Z,1.18
2023-03-11T10:38:56.365Z,1.16
2023-03-11T10:41:55.408Z,1.15
2023-03-11T10:44:34.223Z,1.10
2023-03-11T10:47:06.468Z,1.06
2023-03-11T10:49:38.061Z,1.08
2023-03-11T10:52:07.315Z,1.10
2023-03-11T10:54:43.778Z,1.10
2023-03-11T10:57:35.917Z,1.10
2023-03-11T11:00:16.991Z,1.08
2023-03-11T11:02:57.859Z,1.08
2023-03-11T11:05:37.910Z,1.08
2023-03-11T11:08:13.117Z,1.04
2023-03-11T11:11:00.009Z,0.96
2023-03-11T11:13:36.327Z,0.96
2023-03-11T11:16:26.225Z,1.06
2023-03-11T11:19:15.077Z,1.11
2023-03-11T11:21:51.345Z,1.09
2023-03-11T11:24:28.963Z,1.07
2023-03-11T11:27:14.210Z,1.11
2023-03-11T11:29:48.245Z,1.14
2023-03-11T11:32:32.412Z,1.19
2023-03-11T11:35:16.141Z,1.27
2023-03-11T11:37:56.289Z,1.31
2023-03-11T11:40:36.133Z,1.32
2023-03-11T11:43:30.026Z,1.32
2023-03-11T11:46:12.447Z,1.31
2023-03-11T11:48:45.379Z,1.33
2023-03-11T11:52:01.986Z,1.33
2023-03-11T11:54:54.039Z,1.27
2023-03-11T11:57:32.157Z,1.27
2023-03-11T12:00:45.382Z,1.30
2023-03-11T12:04:06.914Z,1.30
2023-03-11T12:06:54.740Z,1.35
2023-03-11T12:10:22.785Z,1.47
2023-03-11T12:12:57.860Z,1.64
2023-03-11T12:15:38.304Z,1.75
2023-03-11T12:18:34.923Z,1.86
2023-03-11T12:21:42.115Z,2.02
2023-03-11T12:24:54.938Z,2.17
2023-03-11T12:27:49.725Z,2.29
2023-03-11T12:30:26.834Z,2.35
2023-03-11T12:33:05.032Z,2.40
2023-03-11T12:35:38.357Z,2.41
2023-03-11T12:38:13.356Z,2.41
2023-03-11T12:40:44.526Z,2.41
2023-03-11T12:43:33.015Z,2.42
2023-03-11T12:46:06.416Z,2.43
2023-03-11T12:48:49.994Z,2.49
2023-03-11T12:51:28.072Z,2.56
2023-03-11T12:54:33.229Z,2.58
2023-03-11T12:57:15.889Z,2.51
2023-03-11T13:00:17.697Z,2.42
2023-03-11T13:03:46.988Z,2.32
2023-03-11T13:06:33.255Z,2.21
2023-03-11T13:09:15.931Z,2.14
2023-03-11T13:11:50.874Z,2.06
2023-03-11T13:14:46.696Z,2.00
2023-03-11T13:17:39.963Z,1.95
2023-03-11T13:20:46.525Z,1.93
2023-03-11T13:23:28.884Z,1.93
2023-03-11T13:26:05.761Z,1.91
2023-03-11T13:29:02.025Z,1.74
2023-03-11T13:32:00.684Z,1.67
2023-03-11T13:34:50.715Z,1.59
2023-03-11T13:37:45.590Z,1.52
2023-03-11T13:40:44.410Z,1.50
2023-03-11T13:43:23.262Z,1.49
2023-03-11T13:46:27.958Z,1.49
2023-03-11T13:49:41.790Z,1.48
2023-03-11T13:52:48.067Z,1.42
2023-03-11T13:55:47.832Z,1.40
2023-03-11T13:58:25.032Z,1.49
2023-03-11T14:01:03.296Z,1.58
2023-03-11T14:03:44.940Z,1.63
2023-03-11T14:06:24.007Z,1.70
2023-03-11T14:08:59.792Z,1.75
2023-03-11T14:11:30.998Z,1.77
2023-03-11T14:14:50.942Z,1.81
2023-03-11T14:17:32.425Z,1.85
2023-03-11T14:20:18.824Z,1.88
2023-03-11T14:23:02.793Z,1.89
2023-03-11T14:25:36.762Z,1.91
2023-03-11T14:28:06.933Z,1.94
2023-03-11T14:31:00.980Z,2.00
2023-03-11T14:33:38.887Z,2.08
2023-03-11T14:36:16.206Z,2.13
2023-03-11T14:38:58.530Z,2.12
2023-03-11T14:41:37.142Z,2.11
2023-03-11T14:44:11.859Z,2.14
2023-03-11T14:46:45.333Z,2.17
2023-03-11T14:49:23.692Z,2.18
2023-03-11T14:52:13.798Z,2.14
2023-03-11T14:54:56.381Z,2.05
2023-03-11T14:57:44.465Z,1.96
2023-03-11T15:00:29.250Z,1.86
2023-03-11T15:03:19.285Z,1.83
2023-03-11T15:06:16.911Z,1.83
2023-03-11T15:09:06.758Z,1.85
2023-03-11T15:12:41.815Z,1.85
2023-03-11T15:15:32.481Z,1.82
2023-03-11T15:18:35.601Z,1.77
2023-03-11T15:21:20.756Z,1.71
2023-03-11T15:24:27.548Z,1.68
2023-03-11T15:27:35.323Z,1.64
2023-03-11T15:30:49.432Z,1.65
2023-03-11T15:33:55.654Z,1.65
2023-03-11T15:37:26.565Z,1.65
2023-03-11T15:40:45.289Z,1.61
2023-03-11T15:43:50.271Z,1.56
2023-03-11T15:47:01.589Z,1.55
2023-03-11T15:49:43.430Z,1.55
2023-03-11T15:53:26.573Z,1.57
2023-03-11T15:56:38.984Z,1.52
2023-03-11T15:59:18.300Z,1.52
2023-03-11T16:01:58.252Z,1.54
2023-03-11T16:04:28.070Z,1.56
2023-03-11T16:07:08.185Z,1.60
2023-03-11T16:09:47.165Z,1.60
2023-03-11T16:12:24.238Z,1.60
2023-03-11T16:14:56.120Z,1.59
2023-03-11T16:17:43.006Z,1.61
2023-03-11T16:20:29.183Z,1.62
2023-03-11T16:23:02.147Z,1.64
2023-03-11T16:25:41.047Z,1.65
2023-03-11T16:28:16.608Z,1.65
2023-03-11T16:30:50.334Z,1.64
2023-03-11T16:33:23.566Z,1.64
2023-03-11T16:36:00.145Z,1.62
2023-03-11T16:38:43.364Z,1.62
2023-03-11T16:41:20.399Z,1.60
2023-03-11T16:43:57.184Z,1.58
2023-03-11T16:46:38.693Z,1.59
2023-03-11T16:49:16.931Z,1.58
2023-03-11T16:51:49.274Z,1.53
2023-03-11T16:54:32.407Z,1.49
2023-03-11T16:57:41.270Z,1.41
2023-03-11T17:00:24.336Z,1.33
2023-03-11T17:03:01.183Z,1.28
2023-03-11T17:05:38.455Z,1.25
2023-03-11T17:08:19.645Z,1.23
2023-03-11T17:11:02.092Z,1.22
2023-03-11T17:13:42.519Z,1.22
2023-03-11T17:16:13.112Z,1.21
2023-03-11T17:18:45.491Z,1.21
2023-03-11T17:21:21.489Z,1.22
2023-03-11T17:24:12.926Z,1.21
2023-03-11T17:26:45.258Z,1.18
2023-03-11T17:29:23.512Z,1.14
2023-03-11T17:32:18.123Z,1.11
2023-03-11T17:35:11.522Z,1.09
2023-03-11T17:37:47.646Z,1.09
2023-03-11T17:40:31.806Z,1.09
2023-03-11T17:43:03.926Z,1.10
2023-03-11T17:45:42.253Z,1.12
2023-03-11T17:48:16.188Z,1.15
2023-03-11T17:50:50.190Z,1.20
2023-03-11T17:53:22.392Z,1.24
2023-03-11T17:55:54.572Z,1.28
2023-03-11T17:58:25.983Z,1.31
2023-03-11T18:00:55.607Z,1.30
2023-03-11T18:03:31.152Z,1.26
2023-03-11T18:06:05.996Z,1.20
2023-03-11T18:08:41.746Z,1.13
2023-03-11T18:11:34.058Z,1.05
2023-03-11T18:14:14.522Z,1.01
2023-03-11T18:17:03.885Z,0.99
2023-03-11T18:19:34.382Z,1.00
2023-03-11T18:22:12.935Z,1.01
2023-03-11T18:24:43.871Z,1.00
2023-03-11T18:27:24.741Z,1.00
2023-03-11T18:29:57.412Z,1.00
2023-03-11T18:32:27.990Z,1.01
2023-03-11T18:34:58.697Z,1.02
2023-03-11T18:37:36.817Z,1.02
2023-03-11T18:40:13.178Z,1.05
2023-03-11T18:42:42.572Z,1.07
2023-03-11T18:45:17.634Z,1.10
2023-03-11T18:47:52.227Z,1.12
2023-03-11T18:50:24.500Z,1.17
2023-03-11T18:52:53.997Z,1.21
2023-03-11T18:55:40.157Z,1.25
2023-03-11T18:58:19.971Z,1.27
2023-03-11T19:01:03.408Z,1.31
2023-03-11T19:03:38.932Z,1.32
2023-03-11T19:06:16.840Z,1.35
2023-03-11T19:08:51.038Z,1.37
2023-03-11T19:11:26.319Z,1.40
2023-03-11T19:13:59.980Z,1.41
2023-03-11T19:16:36.099Z,1.44
2023-03-11T19:19:15.583Z,1.43
2023-03-11T19:21:49.671Z,1.43
2023-03-11T19:24:26.241Z,1.44
2023-03-11T19:27:18.355Z,1.44
2023-03-11T19:29:54.839Z,1.41
2023-03-11T19:32:32.353Z,1.38
2023-03-11T19:35:09.286Z,1.34
2023-03-11T19:37:41.106Z,1.26
2023-03-11T19:40:11.577Z,1.20
2023-03-11T19:42:48.711Z,1.14
2023-03-11T19:45:42.195Z,1.09
2023-03-11T19:48:23.722Z,1.01
2023-03-11T19:50:58.412Z,0.98
2023-03-11T19:53:37.784Z,0.96
2023-03-11T19:56:13.330Z,0.92
2023-03-11T19:58:52.466Z,0.87
2023-03-11T20:01:32.370Z,0.83
2023-03-11T20:04:05.252Z,0.79
2023-03-11T20:10:13.208Z,0.72
2023-03-11T20:12:55.849Z,0.71
2023-03-11T20:15:35.888Z,0.70
2023-03-11T20:18:06.753Z,0.69
2023-03-11T20:20:50.134Z,0.69
2023-03-11T20:23:22.130Z,0.67
2023-03-11T20:25:55.320Z,0.65
2023-03-11T20:28:27.581Z,0.57
2023-03-11T20:31:01.639Z,0.54
2023-03-11T20:33:37.230Z,0.52
2023-03-11T20:36:18.570Z,0.52
2023-03-11T20:38:53.563Z,0.51
2023-03-11T20:41:27.259Z,0.50
2023-03-11T20:44:00.319Z,0.50
2023-03-11T20:46:39.689Z,0.49
2023-03-11T20:49:11.966Z,0.40
2023-03-11T20:51:41.936Z,0.39
2023-03-11T20:54:18.591Z,0.41
2023-03-11T20:56:51.132Z,0.42
2023-03-11T20:59:20.474Z,0.42
2023-03-11T21:01:51.749Z,0.42
2023-03-11T21:04:24.108Z,0.43
2023-03-11T21:06:55.134Z,0.42
2023-03-11T21:09:26.669Z,0.40
2023-03-11T21:12:05.899Z,0.39
2023-03-11T21:14:35.157Z,0.39
2023-03-11T21:17:06.179Z,0.37
2023-03-11T21:19:34.742Z,0.38
2023-03-11T21:22:04.124Z,0.39
2023-03-11T21:24:35.079Z,0.41
2023-03-11T21:27:08.682Z,0.40
2023-03-11T21:29:40.401Z,0.39
2023-03-11T21:32:12.732Z,0.38
2023-03-11T21:34:48.003Z,0.34
2023-03-11T21:37:24.455Z,0.33
2023-03-11T21:39:57.517Z,0.31
2023-03-11T21:42:48.061Z,0.28
2023-03-11T21:45:23.048Z,0.25
2023-03-11T21:47:58.867Z,0.23
2023-03-11T21:50:41.938Z,0.21
2023-03-11T21:53:19.510Z,0.18
2023-03-11T21:56:13.313Z,0.17
2023-03-11T21:58:53.882Z,0.19
2023-03-11T22:01:51.817Z,0.16
2023-03-11T22:04:52.495Z,0.12
2023-03-11T22:07:32.491Z,0.11
2023-03-11T22:10:10.622Z,0.11
2023-03-11T22:12:42.470Z,0.09
2023-03-11T22:15:18.500Z,0.07
2023-03-11T22:18:01.320Z,0.07
2023-03-11T22:21:15.491Z,0.05
2023-03-11T22:23:51.574Z,0.02
2023-03-11T22:26:28.290Z,0.01
2023-03-11T22:29:09.100Z,0.00
2023-03-11T22:31:44.550Z,-0.01
2023-03-11T22:34:17.178Z,-0.02
2023-03-11T22:36:49.819Z,-0.01
2023-03-11T22:39:39.613Z,-0.02
2023-03-11T22:42:10.829Z,-0.04
2023-03-11T22:45:01.132Z,-0.05
2023-03-11T22:47:36.660Z,-0.06
2023-03-11T22:50:12.288Z,-0.07
2023-03-11T22:52:45.576Z,-0.08
2023-03-11T22:55:21.755Z,-0.08
2023-03-11T22:58:05.906Z,-0.09
2023-03-11T23:00:39.052Z,-0.10
2023-03-11T23:03:17.546Z,-0.12
2023-03-11T23:05:54.019Z,-0.12
2023-03-11T23:08:30.956Z,-0.13
2023-03-11T23:11:09.009Z,-0.15
2023-03-11T23:13:46.339Z,-0.16
2023-03-11T23:16:26.598Z,-0.16
2023-03-11T23:19:03.706Z,-0.18
2023-03-11T23:21:44.357Z,-0.22
2023-03-11T23:24:16.338Z,-0.22
2023-03-11T23:26:45.711Z,-0.22
2023-03-11T23:29:15.063Z,-0.22
2023-03-11T23:31:44.112Z,-0.22
2023-03-11T23:34:13.253Z,-0.22
2023-03-11T23:36:48.591Z,-0.25
2023-03-11T23:39:21.253Z,-0.25
2023-03-11T23:41:53.686Z,-0.27
2023-03-11T23:44:24.274Z,-0.28
2023-03-11T23:46:55.384Z,-0.35
2023-03-11T23:49:27.560Z,-0.36
2023-03-11T23:51:56.655Z,-0.35
2023-03-11T23:54:26.191Z,-0.36
2023-03-11T23:56:58.742Z,-0.35
2023-03-11T23:59:33.609Z,-0.34
